createdAt,value
2019-05-07T00:01:03.620Z,86.00
2019-05-07T00:03:33.066Z,86.80
2019-05-07T00:06:02.938Z,86.50
2019-05-07T00:08:32.480Z,86.00
2019-05-07T00:11:02.542Z,85.60
2019-05-07T00:13:33.372Z,86.00
2019-05-07T00:16:02.614Z,86.30
2019-05-07T00:18:32.405Z,85.40
2019-05-07T00:21:03.625Z,86.00
2019-05-07T00:23:33.041Z,86.00
2019-05-07T00:26:03.056Z,85.90
2019-05-07T00:28:32.645Z,86.00
2019-05-07T00:31:02.852Z,86.10
2019-05-07T00:33:32.455Z,86.20
2019-05-07T00:36:03.512Z,86.60
2019-05-07T00:38:34.526Z,86.40
2019-05-07T00:41:05.701Z,86.70
2019-05-07T00:43:36.113Z,87.20
2019-05-07T00:46:08.320Z,87.20
2019-05-07T00:48:37.771Z,87.80
2019-05-07T00:51:23.836Z,87.40
2019-05-07T00:53:53.345Z,87.40
2019-05-07T00:56:24.054Z,87.50
2019-05-07T00:58:53.533Z,87.80
2019-05-07T01:01:23.997Z,87.80
2019-05-07T01:03:53.616Z,87.90
2019-05-07T01:06:26.569Z,87.90
2019-05-07T01:08:55.286Z,87.90
2019-05-07T01:11:24.866Z,88.40
2019-05-07T01:13:54.458Z,88.30
2019-05-07T01:16:24.016Z,88.00
2019-05-07T01:18:54.535Z,88.10
2019-05-07T01:21:25.608Z,87.60
2019-05-07T01:23:54.981Z,88.40
2019-05-07T01:26:24.567Z,88.50
2019-05-07T01:29:02.427Z,88.70
2019-05-07T01:31:34.314Z,88.30
2019-05-07T01:34:05.473Z,87.20
2019-05-07T01:36:34.894Z,87.40
2019-05-07T01:39:06.060Z,87.30
2019-05-07T01:41:35.541Z,87.20
2019-05-07T01:44:05.225Z,87.50
2019-05-07T01:46:35.185Z,87.90
2019-05-07T01:49:04.834Z,87.80
2019-05-07T01:51:34.355Z,87.50
2019-05-07T01:54:03.973Z,87.50
2019-05-07T01:56:33.525Z,86.50
2019-05-07T01:59:02.919Z,85.90
2019-05-07T02:01:33.114Z,86.00
2019-05-07T02:04:13.994Z,87.10
2019-05-07T02:07:02.838Z,87.30
2019-05-07T02:09:34.179Z,87.50
2019-05-07T02:12:05.407Z,87.70
2019-05-07T02:14:37.947Z,88.40
2019-05-07T02:17:07.865Z,89.00
2019-05-07T02:19:39.849Z,89.40
2019-05-07T02:22:09.777Z,89.20
2019-05-07T02:24:39.227Z,89.20
2019-05-07T02:27:08.717Z,89.50
2019-05-07T02:29:38.311Z,89.20
2019-05-07T02:32:07.760Z,89.20
2019-05-07T02:34:37.203Z,89.60
2019-05-07T02:37:08.382Z,89.50
2019-05-07T02:39:44.265Z,89.10
2019-05-07T02:42:14.620Z,89.20
2019-05-07T02:45:03.254Z,88.90
2019-05-07T02:47:33.534Z,88.90
2019-05-07T02:50:17.093Z,89.50
2019-05-07T02:52:48.224Z,89.80
2019-05-07T02:55:19.348Z,90.00
2019-05-07T02:57:48.832Z,89.00
2019-05-07T03:00:19.465Z,88.70
2019-05-07T03:02:48.469Z,89.20
2019-05-07T03:05:17.790Z,89.10
2019-05-07T03:07:47.362Z,89.50
2019-05-07T03:10:16.989Z,90.00
2019-05-07T03:12:46.470Z,89.30
2019-05-07T03:15:16.039Z,89.00
2019-05-07T03:17:45.559Z,89.00
2019-05-07T03:20:22.816Z,89.00
2019-05-07T03:22:53.700Z,88.40
2019-05-07T03:25:35.554Z,88.20
2019-05-07T03:28:05.013Z,88.50
2019-05-07T03:30:45.860Z,88.40
2019-05-07T03:33:17.178Z,88.50
2019-05-07T03:35:56.123Z,88.40
2019-05-07T03:38:22.913Z,88.30
2019-05-07T03:40:53.294Z,88.10
2019-05-07T03:43:24.879Z,87.70
2019-05-07T03:46:03.619Z,87.70
2019-05-07T03:48:34.493Z,88.10
2019-05-07T03:51:04.183Z,88.30
2019-05-07T03:53:34.257Z,88.60
2019-05-07T03:56:04.457Z,88.90
2019-05-07T03:58:35.197Z,88.80
2019-05-07T04:01:04.826Z,89.00
2019-05-07T04:03:34.713Z,89.00
2019-05-07T04:06:04.447Z,89.00
2019-05-07T04:08:33.979Z,89.30
2019-05-07T04:11:03.952Z,89.60
2019-05-07T04:13:34.023Z,89.70
2019-05-07T04:16:04.340Z,89.70
2019-05-07T04:18:35.713Z,90.00
2019-05-07T04:21:05.179Z,90.20
2019-05-07T04:23:35.351Z,89.30
2019-05-07T04:26:13.428Z,88.70
2019-05-07T04:28:59.330Z,89.00
2019-05-07T04:31:34.311Z,89.30
2019-05-07T04:34:04.355Z,89.40
2019-05-07T04:36:34.770Z,89.70
2019-05-07T04:39:07.570Z,89.70
2019-05-07T04:41:37.037Z,90.00
2019-05-07T04:44:06.528Z,90.10
2019-05-07T04:46:37.045Z,90.20
2019-05-07T04:49:06.535Z,90.40
2019-05-07T04:51:37.630Z,90.40
2019-05-07T04:54:07.196Z,90.40
2019-05-07T04:56:36.729Z,90.50
2019-05-07T04:59:06.223Z,90.60
2019-05-07T05:01:37.446Z,90.80
2019-05-07T05:04:24.336Z,90.80
2019-05-07T05:06:38.034Z,90.90
2019-05-07T05:09:07.674Z,91.00
2019-05-07T05:11:37.096Z,90.90
2019-05-07T05:14:07.898Z,90.90
2019-05-07T05:16:38.595Z,90.90
2019-05-07T05:19:08.090Z,90.80
2019-05-07T05:21:42.130Z,90.80
2019-05-07T05:24:19.101Z,90.80
2019-05-07T05:26:48.635Z,90.90
2019-05-07T05:29:18.687Z,90.90
2019-05-07T05:31:48.139Z,91.00
2019-05-07T05:34:17.689Z,91.20
2019-05-07T05:36:47.219Z,91.00
2019-05-07T05:39:16.833Z,90.90
2019-05-07T05:41:47.984Z,91.10
2019-05-07T05:44:22.774Z,90.90
2019-05-07T05:46:52.661Z,90.90
2019-05-07T05:49:25.158Z,90.90
2019-05-07T05:52:12.427Z,90.90
2019-05-07T05:54:46.763Z,91.20
2019-05-07T05:57:28.051Z,91.40
2019-05-07T06:00:07.816Z,91.60
2019-05-07T06:02:53.202Z,91.00
2019-05-07T06:05:42.994Z,91.20
2019-05-07T06:08:17.454Z,91.30
2019-05-07T06:10:51.906Z,91.10
2019-05-07T06:13:23.543Z,91.30
2019-05-07T06:15:54.684Z,90.90
2019-05-07T06:18:43.752Z,90.90
2019-05-07T06:21:21.298Z,90.70
2019-05-07T06:23:55.392Z,90.70
2019-05-07T06:26:24.981Z,91.10
2019-05-07T06:28:55.078Z,90.80
2019-05-07T06:31:27.116Z,90.60
2019-05-07T06:33:58.221Z,90.50
2019-05-07T06:36:28.681Z,90.30
2019-05-07T06:39:01.927Z,90.20
2019-05-07T06:41:52.538Z,90.50
2019-05-07T06:44:23.238Z,90.30
2019-05-07T06:46:52.866Z,90.10
2019-05-07T06:49:22.440Z,90.00
2019-05-07T06:51:52.800Z,89.10
2019-05-07T06:54:22.697Z,90.10
2019-05-07T06:56:52.465Z,88.70
2019-05-07T06:59:34.572Z,88.20
2019-05-07T07:02:22.528Z,88.50
2019-05-07T07:04:56.918Z,87.00
2019-05-07T07:07:33.982Z,87.10
2019-05-07T07:10:20.155Z,85.90
2019-05-07T07:12:49.719Z,85.40
2019-05-07T07:15:19.472Z,84.40
2019-05-07T07:17:48.954Z,84.90
2019-05-07T07:20:18.556Z,84.70
2019-05-07T07:22:48.045Z,82.90
2019-05-07T07:25:17.498Z,80.80
2019-05-07T07:27:47.120Z,84.20
2019-05-07T07:30:18.950Z,82.70
2019-05-07T07:32:51.924Z,82.20
2019-05-07T07:35:22.543Z,81.30
2019-05-07T07:37:53.054Z,79.70
2019-05-07T07:40:32.563Z,79.30
2019-05-07T07:43:04.870Z,79.70
2019-05-07T07:45:32.556Z,77.60
2019-05-07T07:48:02.393Z,76.70
2019-05-07T07:50:33.095Z,76.80
2019-05-07T07:53:02.761Z,77.20
2019-05-07T07:55:33.920Z,76.30
2019-05-07T07:58:06.124Z,72.60
2019-05-07T08:00:46.152Z,73.60
2019-05-07T08:03:15.720Z,72.00
2019-05-07T08:05:45.282Z,72.60
2019-05-07T08:08:14.840Z,71.20
2019-05-07T08:10:44.450Z,73.10
2019-05-07T08:13:14.122Z,74.20
2019-05-07T08:15:43.662Z,72.90
2019-05-07T08:18:13.201Z,72.60
2019-05-07T08:20:43.095Z,72.00
2019-05-07T08:23:12.960Z,71.40
2019-05-07T08:25:48.134Z,72.70
2019-05-07T08:28:19.843Z,72.10
2019-05-07T08:30:52.558Z,72.00
2019-05-07T08:33:26.747Z,69.80
2019-05-07T08:35:58.212Z,69.80
2019-05-07T08:38:32.622Z,69.80
2019-05-07T08:41:02.732Z,68.00
2019-05-07T08:43:32.324Z,68.60
2019-05-07T08:46:19.422Z,69.30
2019-05-07T08:48:52.808Z,67.60
2019-05-07T08:51:22.544Z,68.30
2019-05-07T08:54:07.181Z,68.80
2019-05-07T08:56:37.376Z,65.40
2019-05-07T08:59:08.072Z,70.00
2019-05-07T09:01:39.291Z,65.30
2019-05-07T09:04:08.894Z,64.50
2019-05-07T09:06:38.342Z,65.30
2019-05-07T09:09:13.092Z,63.90
2019-05-07T09:11:43.054Z,66.30
2019-05-07T09:14:12.904Z,63.20
2019-05-07T09:16:42.872Z,61.10
2019-05-07T09:19:13.008Z,60.30
2019-05-07T09:21:42.955Z,60.60
2019-05-07T09:24:12.737Z,61.10
2019-05-07T09:26:43.938Z,60.40
2019-05-07T09:29:32.246Z,61.90
2019-05-07T09:32:03.242Z,61.20
2019-05-07T09:34:34.385Z,62.40
2019-05-07T09:37:08.221Z,61.90
2019-05-07T09:39:39.236Z,61.70
2019-05-07T09:42:12.058Z,60.30
2019-05-07T09:44:42.458Z,60.10
2019-05-07T09:47:13.137Z,61.70
2019-05-07T09:49:42.664Z,59.70
2019-05-07T09:52:12.326Z,56.20
2019-05-07T09:54:42.860Z,55.40
2019-05-07T09:57:27.354Z,57.20
2019-05-07T09:59:43.845Z,59.90
2019-05-07T10:02:13.481Z,59.40
2019-05-07T10:04:42.943Z,58.80
2019-05-07T10:07:12.758Z,56.20
2019-05-07T10:09:42.674Z,54.20
2019-05-07T10:12:18.779Z,55.30
2019-05-07T10:14:48.381Z,55.20
2019-05-07T10:17:34.776Z,53.50
2019-05-07T10:20:21.094Z,55.20
2019-05-07T10:22:40.065Z,55.80
2019-05-07T10:25:12.014Z,54.60
2019-05-07T10:27:41.839Z,53.60
2019-05-07T10:30:12.926Z,51.70
2019-05-07T10:32:43.021Z,53.60
2019-05-07T10:35:14.320Z,52.70
2019-05-07T10:37:43.916Z,53.00
2019-05-07T10:40:13.882Z,54.40
2019-05-07T10:42:43.415Z,52.50
2019-05-07T10:45:24.864Z,54.80
2019-05-07T10:48:11.990Z,54.90
2019-05-07T10:50:49.224Z,56.20
2019-05-07T10:53:18.747Z,55.20
2019-05-07T10:55:48.422Z,55.10
2019-05-07T10:58:19.570Z,56.20
2019-05-07T11:00:49.135Z,55.50
2019-05-07T11:03:21.834Z,55.40
2019-05-07T11:05:52.353Z,56.70
2019-05-07T11:08:25.683Z,59.40
2019-05-07T11:10:54.861Z,57.40
2019-05-07T11:13:24.483Z,57.00
2019-05-07T11:15:57.691Z,56.50
2019-05-07T11:18:42.653Z,58.40
2019-05-07T11:21:12.410Z,57.90
2019-05-07T11:23:42.005Z,57.50
2019-05-07T11:26:11.923Z,57.20
2019-05-07T11:28:41.871Z,58.80
2019-05-07T11:31:12.367Z,58.60
2019-05-07T11:33:42.066Z,61.00
2019-05-07T11:36:11.569Z,61.30
2019-05-07T11:38:41.891Z,64.30
2019-05-07T11:41:12.771Z,65.50
2019-05-07T11:43:47.121Z,67.00
2019-05-07T11:46:19.392Z,67.50
2019-05-07T11:48:53.225Z,70.30
2019-05-07T11:51:24.436Z,72.20
2019-05-07T11:54:13.801Z,72.90
2019-05-07T11:56:43.433Z,72.80
2019-05-07T11:59:14.407Z,72.50
2019-05-07T12:01:47.786Z,74.50
2019-05-07T12:04:16.827Z,73.50
2019-05-07T12:06:46.402Z,72.20
2019-05-07T12:09:15.874Z,72.90
2019-05-07T12:11:45.892Z,72.10
2019-05-07T12:14:28.106Z,72.80
2019-05-07T12:16:46.464Z,73.00
2019-05-07T12:19:16.574Z,74.50
2019-05-07T12:21:46.333Z,72.50
2019-05-07T12:24:16.508Z,74.30
2019-05-07T12:26:46.194Z,75.40
2019-05-07T12:29:15.782Z,71.00
2019-05-07T12:31:48.480Z,70.80
2019-05-07T12:34:20.352Z,70.00
2019-05-07T12:36:49.876Z,71.40
2019-05-07T12:39:21.569Z,71.00
2019-05-07T12:41:52.428Z,67.80
2019-05-07T12:44:22.284Z,68.90
2019-05-07T12:46:52.449Z,62.60
2019-05-07T12:49:22.260Z,59.90
2019-05-07T12:52:03.726Z,65.40
2019-05-07T12:54:42.094Z,60.90
2019-05-07T12:57:11.934Z,58.70
2019-05-07T12:59:42.606Z,57.40
2019-05-07T13:02:33.972Z,52.80
2019-05-07T13:04:48.020Z,53.10
2019-05-07T13:07:24.986Z,54.90
2019-05-07T13:09:54.818Z,53.00
2019-05-07T13:12:24.316Z,54.40
2019-05-07T13:14:53.775Z,55.10
2019-05-07T13:17:23.564Z,55.30
2019-05-07T13:19:53.005Z,55.30
2019-05-07T13:22:23.030Z,54.30
2019-05-07T13:24:53.039Z,51.00
2019-05-07T13:27:22.684Z,53.00
2019-05-07T13:29:53.220Z,56.60
2019-05-07T13:32:24.179Z,52.70
2019-05-07T13:34:53.018Z,50.70
2019-05-07T13:37:27.165Z,51.10
2019-05-07T13:39:59.334Z,50.00
2019-05-07T13:42:46.728Z,54.60
2019-05-07T13:45:36.608Z,52.70
2019-05-07T13:48:07.800Z,52.10
2019-05-07T13:50:37.841Z,53.30
2019-05-07T13:53:07.393Z,51.50
2019-05-07T13:55:37.463Z,51.80
2019-05-07T13:58:07.129Z,51.50
2019-05-07T14:00:54.720Z,50.80
2019-05-07T14:03:24.241Z,51.70
2019-05-07T14:05:54.254Z,54.00
2019-05-07T14:08:24.979Z,51.50
2019-05-07T14:10:54.633Z,50.20
2019-05-07T14:13:25.775Z,49.80
2019-05-07T14:16:12.151Z,50.10
2019-05-07T14:18:41.791Z,49.70
2019-05-07T14:21:13.008Z,50.40
2019-05-07T14:23:42.874Z,52.50
2019-05-07T14:26:12.467Z,52.60
2019-05-07T14:28:42.362Z,53.90
2019-05-07T14:31:12.347Z,52.00
2019-05-07T14:33:43.550Z,52.00
2019-05-07T14:36:17.304Z,52.60
2019-05-07T14:38:52.049Z,51.90
2019-05-07T14:41:25.372Z,50.50
2019-05-07T14:43:57.303Z,51.00
2019-05-07T14:46:26.935Z,50.20
2019-05-07T14:48:57.037Z,53.50
2019-05-07T14:51:26.673Z,53.00
2019-05-07T14:53:56.190Z,53.60
2019-05-07T14:56:25.876Z,54.20
2019-05-07T14:58:56.145Z,54.30
2019-05-07T15:01:25.919Z,53.30
2019-05-07T15:03:57.491Z,55.30
2019-05-07T15:06:26.742Z,56.00
2019-05-07T15:08:56.300Z,57.30
2019-05-07T15:11:26.075Z,55.50
2019-05-07T15:13:55.604Z,56.00
2019-05-07T15:16:25.798Z,56.60
2019-05-07T15:18:56.862Z,57.00
2019-05-07T15:21:26.507Z,57.80
2019-05-07T15:23:57.090Z,57.50
2019-05-07T15:26:26.746Z,55.50
2019-05-07T15:29:02.303Z,56.20
2019-05-07T15:31:39.721Z,57.00
2019-05-07T15:34:09.179Z,57.10
2019-05-07T15:36:38.678Z,55.70
2019-05-07T15:39:08.209Z,56.60
2019-05-07T15:41:38.388Z,56.40
2019-05-07T15:44:08.078Z,55.80
2019-05-07T15:46:37.868Z,56.20
2019-05-07T15:49:07.386Z,55.30
2019-05-07T15:51:37.018Z,56.60
2019-05-07T15:54:06.537Z,54.40
2019-05-07T15:56:36.026Z,54.30
2019-05-07T15:59:05.570Z,54.20
2019-05-07T16:01:35.141Z,55.00
2019-05-07T16:04:04.729Z,56.50
2019-05-07T16:06:34.294Z,54.00
2019-05-07T16:09:05.210Z,54.30
2019-05-07T16:11:34.874Z,54.10
2019-05-07T16:14:06.113Z,54.20
2019-05-07T16:16:38.149Z,55.20
2019-05-07T16:19:12.584Z,53.80
2019-05-07T16:21:42.628Z,52.80
2019-05-07T16:24:13.801Z,53.20
2019-05-07T16:26:43.323Z,53.10
2019-05-07T16:29:13.425Z,52.10
2019-05-07T16:31:44.238Z,51.70
2019-05-07T16:34:13.146Z,51.80
2019-05-07T16:36:43.565Z,52.80
2019-05-07T16:39:13.097Z,52.40
2019-05-07T16:41:42.589Z,52.50
2019-05-07T16:44:13.790Z,51.30
2019-05-07T16:46:44.696Z,50.80
2019-05-07T16:49:14.226Z,51.90
2019-05-07T16:51:44.685Z,52.80
2019-05-07T16:54:14.333Z,51.60
2019-05-07T16:57:03.140Z,51.50
2019-05-07T16:59:32.817Z,52.20
2019-05-07T17:02:05.009Z,53.20
2019-05-07T17:04:34.475Z,53.90
2019-05-07T17:07:05.574Z,52.90
2019-05-07T17:09:35.481Z,55.10
2019-05-07T17:12:06.794Z,56.40
2019-05-07T17:14:36.233Z,54.70
2019-05-07T17:17:05.737Z,56.00
2019-05-07T17:19:35.200Z,56.90
2019-05-07T17:22:06.512Z,57.30
2019-05-07T17:24:35.722Z,55.30
2019-05-07T17:27:05.280Z,54.60
2019-05-07T17:29:34.790Z,55.10
2019-05-07T17:32:04.265Z,55.60
2019-05-07T17:34:33.749Z,56.20
2019-05-07T17:37:03.364Z,56.50
2019-05-07T17:39:32.835Z,55.90
2019-05-07T17:42:02.652Z,56.80
2019-05-07T17:44:32.587Z,57.10
2019-05-07T17:47:02.476Z,57.20
2019-05-07T17:49:36.385Z,55.10
2019-05-07T17:52:04.699Z,56.60
2019-05-07T17:54:34.272Z,57.00
2019-05-07T17:57:03.769Z,56.50
2019-05-07T17:59:33.269Z,55.00
2019-05-07T18:02:13.636Z,55.50
2019-05-07T18:04:50.855Z,56.80
2019-05-07T18:07:16.099Z,57.20
2019-05-07T18:09:45.670Z,57.10
2019-05-07T18:12:15.223Z,56.70
2019-05-07T18:14:44.925Z,56.50
2019-05-07T18:17:22.119Z,57.60
2019-05-07T18:19:51.592Z,57.60
2019-05-07T18:22:22.173Z,57.80
2019-05-07T18:24:51.708Z,58.70
2019-05-07T18:27:22.907Z,58.90
2019-05-07T18:29:54.286Z,58.20
2019-05-07T18:32:26.823Z,59.40
2019-05-07T18:34:56.307Z,59.60
2019-05-07T18:37:25.763Z,59.90
2019-05-07T18:39:55.256Z,60.50
2019-05-07T18:42:24.704Z,60.70
2019-05-07T18:44:54.162Z,61.70
2019-05-07T18:47:23.653Z,62.30
2019-05-07T18:49:54.201Z,63.90
2019-05-07T18:52:23.802Z,63.50
2019-05-07T18:54:53.377Z,63.60
2019-05-07T18:57:22.841Z,63.00
2019-05-07T18:59:53.044Z,61.60
2019-05-07T19:02:23.121Z,61.50
2019-05-07T19:04:52.545Z,63.80
2019-05-07T19:07:23.091Z,64.20
2019-05-07T19:09:52.811Z,66.00
2019-05-07T19:12:23.994Z,66.00
2019-05-07T19:14:53.543Z,66.30
2019-05-07T19:17:25.657Z,66.00
2019-05-07T19:19:56.554Z,67.10
2019-05-07T19:22:25.209Z,67.00
2019-05-07T19:24:56.375Z,67.40
2019-05-07T19:27:26.203Z,67.30
2019-05-07T19:29:57.865Z,67.80
2019-05-07T19:32:27.589Z,68.00
2019-05-07T19:34:57.173Z,66.90
2019-05-07T19:37:26.679Z,67.30
2019-05-07T19:39:56.289Z,66.50
2019-05-07T19:42:27.311Z,67.60
2019-05-07T19:44:56.843Z,69.70
2019-05-07T19:47:26.321Z,70.60
2019-05-07T19:49:56.589Z,69.00
2019-05-07T19:52:26.062Z,70.60
2019-05-07T19:55:00.782Z,70.40
2019-05-07T19:57:28.434Z,70.50
2019-05-07T19:59:57.935Z,71.70
2019-05-07T20:02:29.031Z,71.70
2019-05-07T20:04:58.544Z,72.00
2019-05-07T20:07:28.081Z,72.10
2019-05-07T20:09:57.639Z,72.00
2019-05-07T20:12:27.151Z,73.10
2019-05-07T20:14:57.848Z,73.70
2019-05-07T20:17:30.436Z,72.80
2019-05-07T20:19:58.444Z,73.00
2019-05-07T20:22:28.063Z,72.20
2019-05-07T20:24:57.619Z,72.20
2019-05-07T20:27:27.015Z,72.50
2019-05-07T20:29:56.646Z,72.50
2019-05-07T20:32:26.102Z,71.70
2019-05-07T20:34:55.678Z,71.70
2019-05-07T20:37:25.200Z,73.50
2019-05-07T20:39:54.722Z,73.40
2019-05-07T20:42:26.166Z,74.60
2019-05-07T20:44:55.302Z,74.80
2019-05-07T20:47:26.381Z,74.70
2019-05-07T20:49:55.896Z,75.20
2019-05-07T20:52:25.424Z,76.40
2019-05-07T20:55:05.804Z,75.90
2019-05-07T20:57:39.840Z,76.00
2019-05-07T21:00:13.818Z,76.20
2019-05-07T21:02:47.920Z,76.50
2019-05-07T21:05:15.527Z,76.70
2019-05-07T21:07:45.055Z,76.50
2019-05-07T21:10:14.627Z,77.20
2019-05-07T21:12:44.084Z,77.30
2019-05-07T21:15:14.476Z,76.80
2019-05-07T21:17:43.949Z,77.30
2019-05-07T21:20:13.552Z,77.50
2019-05-07T21:22:44.075Z,77.60
2019-05-07T21:25:13.616Z,77.90
2019-05-07T21:27:43.254Z,77.80
2019-05-07T21:30:13.124Z,77.90
2019-05-07T21:32:42.934Z,78.00
2019-05-07T21:35:12.653Z,78.50
2019-05-07T21:37:42.164Z,78.80
2019-05-07T21:40:12.999Z,78.70
2019-05-07T21:42:42.717Z,79.00
2019-05-07T21:45:12.438Z,79.60
2019-05-07T21:47:41.813Z,79.80
2019-05-07T21:50:12.453Z,79.80
2019-05-07T21:52:49.067Z,80.40
2019-05-07T21:55:22.287Z,80.50
2019-05-07T21:58:11.798Z,81.30
2019-05-07T22:00:59.441Z,81.80
2019-05-07T22:03:32.028Z,82.30
2019-05-07T22:06:02.583Z,82.20
2019-05-07T22:08:32.693Z,82.60
2019-05-07T22:11:04.518Z,82.30
2019-05-07T22:13:33.405Z,82.40
2019-05-07T22:16:04.515Z,83.10
2019-05-07T22:18:34.299Z,82.90
2019-05-07T22:21:03.859Z,82.50
2019-05-07T22:23:34.361Z,82.50
2019-05-07T22:26:19.278Z,82.30
2019-05-07T22:28:35.501Z,82.40
2019-05-07T22:31:24.761Z,82.80
2019-05-07T22:34:04.795Z,82.30
2019-05-07T22:36:34.358Z,82.60
2019-05-07T22:39:22.148Z,82.80
2019-05-07T22:41:54.952Z,83.10
2019-05-07T22:44:26.368Z,83.00
2019-05-07T22:46:57.829Z,82.40
2019-05-07T22:49:27.287Z,83.00
2019-05-07T22:51:57.851Z,83.00
2019-05-07T22:54:27.223Z,82.80
2019-05-07T22:56:58.349Z,82.50
2019-05-07T22:59:27.823Z,81.80
2019-05-07T23:01:57.327Z,82.00
2019-05-07T23:04:26.837Z,82.10
2019-05-07T23:06:56.415Z,82.00
2019-05-07T23:09:25.877Z,81.90
2019-05-07T23:11:55.365Z,82.30
2019-05-07T23:14:24.819Z,81.80
2019-05-07T23:16:57.205Z,82.10
2019-05-07T23:19:26.295Z,81.70
2019-05-07T23:21:55.907Z,81.30
2019-05-07T23:24:25.385Z,82.00
2019-05-07T23:26:54.886Z,81.80
2019-05-07T23:29:24.366Z,82.00
2019-05-07T23:31:55.265Z,81.90
2019-05-07T23:34:26.529Z,81.80
2019-05-07T23:36:56.064Z,81.80
2019-05-07T23:39:30.800Z,81.90
2019-05-07T23:42:02.329Z,82.30
2019-05-07T23:44:31.811Z,82.10
2019-05-07T23:47:02.808Z,82.50
2019-05-07T23:49:32.434Z,82.30
2019-05-07T23:52:02.539Z,82.70
2019-05-07T23:54:32.099Z,82.70
2019-05-07T23:57:08.636Z,82.60
2019-05-07T23:59:32.997Z,82.60
